sensor_id;sensor_type;location;lat;lon;timestamp;P1;durP1;ratioP1;P2;durP2;ratioP2
74538;SDS011;66042;51.090;-115.340;2023-02-14T00:01:11;1.10;;;0.50;;
74538;SDS011;66042;51.090;-115.340;2023-02-14T00:03:38;3.20;;;0.60;;
74538;SDS011;66042;51.090;-115.340;2023-02-14T00:06:11;1.40;;;0.60;;
74538;SDS011;66042;51.090;-115.340;2023-02-14T00:08:40;2.30;;;0.70;;
74538;SDS011;66042;51.090;-115.340;2023-02-14T00:11:12;1.90;;;1.10;;
74538;SDS011;66042;51.090;-115.340;2023-02-14T00:13:40;3.20;;;0.80;;
74538;SDS011;66042;51.090;-115.340;2023-02-14T00:16:26;2.70;;;0.60;;
74538;SDS011;66042;51.090;-115.340;2023-02-14T00:18:53;3.30;;;0.70;;
74538;SDS011;66042;51.090;-115.340;2023-02-14T00:21:30;1.90;;;0.50;;
74538;SDS011;66042;51.090;-115.340;2023-02-14T00:24:01;1.90;;;0.50;;
74538;SDS011;66042;51.090;-115.340;2023-02-14T00:26:29;2.70;;;0.60;;
74538;SDS011;66042;51.090;-115.340;2023-02-14T00:28:56;4.50;;;0.90;;
74538;SDS011;66042;51.090;-115.340;2023-02-14T00:31:23;1.60;;;0.60;;
74538;SDS011;66042;51.090;-115.340;2023-02-14T00:33:50;8.90;;;1.40;;
74538;SDS011;66042;51.090;-115.340;2023-02-14T00:36:19;12.10;;;0.80;;
74538;SDS011;66042;51.090;-115.340;2023-02-14T00:38:46;8.60;;;0.80;;
74538;SDS011;66042;51.090;-115.340;2023-02-14T00:41:13;7.70;;;0.50;;
74538;SDS011;66042;51.090;-115.340;2023-02-14T00:43:48;8.60;;;0.70;;
74538;SDS011;66042;51.090;-115.340;2023-02-14T00:46:20;7.30;;;0.70;;
74538;SDS011;66042;51.090;-115.340;2023-02-14T00:48:48;10.80;;;0.90;;
74538;SDS011;66042;51.090;-115.340;2023-02-14T00:51:16;9.20;;;0.70;;
74538;SDS011;66042;51.090;-115.340;2023-02-14T00:53:45;11.70;;;2.20;;
74538;SDS011;66042;51.090;-115.340;2023-02-14T00:56:14;11.20;;;1.00;;
74538;SDS011;66042;51.090;-115.340;2023-02-14T00:58:41;4.10;;;0.70;;
74538;SDS011;66042;51.090;-115.340;2023-02-14T01:01:10;5.40;;;1.20;;
74538;SDS011;66042;51.090;-115.340;2023-02-14T01:03:38;5.10;;;1.20;;
74538;SDS011;66042;51.090;-115.340;2023-02-14T01:06:06;7.40;;;0.90;;
74538;SDS011;66042;51.090;-115.340;2023-02-14T01:08:33;17.30;;;1.10;;
74538;SDS011;66042;51.090;-115.340;2023-02-14T01:11:11;11.70;;;1.00;;
74538;SDS011;66042;51.090;-115.340;2023-02-14T01:13:41;12.60;;;1.30;;
74538;SDS011;66042;51.090;-115.340;2023-02-14T01:16:12;6.90;;;0.50;;
74538;SDS011;66042;51.090;-115.340;2023-02-14T01:18:42;3.80;;;0.60;;
74538;SDS011;66042;51.090;-115.340;2023-02-14T01:21:23;7.70;;;0.50;;
74538;SDS011;66042;51.090;-115.340;2023-02-14T01:23:55;5.30;;;0.50;;
74538;SDS011;66042;51.090;-115.340;2023-02-14T01:26:24;8.10;;;0.70;;
74538;SDS011;66042;51.090;-115.340;2023-02-14T01:28:52;4.60;;;0.80;;
74538;SDS011;66042;51.090;-115.340;2023-02-14T01:31:22;4.80;;;0.50;;
74538;SDS011;66042;51.090;-115.340;2023-02-14T01:33:51;5.10;;;1.00;;
74538;SDS011;66042;51.090;-115.340;2023-02-14T01:36:25;8.80;;;1.00;;
74538;SDS011;66042;51.090;-115.340;2023-02-14T01:39:06;7.30;;;0.60;;
74538;SDS011;66042;51.090;-115.340;2023-02-14T01:41:39;8.70;;;1.10;;
74538;SDS011;66042;51.090;-115.340;2023-02-14T01:46:54;10.50;;;1.10;;
74538;SDS011;66042;51.090;-115.340;2023-02-14T01:49:31;6.90;;;0.80;;
74538;SDS011;66042;51.090;-115.340;2023-02-14T01:52:12;7.70;;;0.90;;
74538;SDS011;66042;51.090;-115.340;2023-02-14T01:54:47;6.70;;;1.00;;
74538;SDS011;66042;51.090;-115.340;2023-02-14T01:57:20;2.50;;;0.50;;
74538;SDS011;66042;51.090;-115.340;2023-02-14T01:59:55;3.60;;;0.40;;
74538;SDS011;66042;51.090;-115.340;2023-02-14T02:02:44;5.60;;;0.70;;
74538;SDS011;66042;51.090;-115.340;2023-02-14T02:05:13;14.80;;;1.30;;
74538;SDS011;66042;51.090;-115.340;2023-02-14T02:07:42;5.50;;;0.90;;
74538;SDS011;66042;51.090;-115.340;2023-02-14T02:10:09;9.10;;;1.10;;
74538;SDS011;66042;51.090;-115.340;2023-02-14T02:12:36;7.40;;;1.00;;
74538;SDS011;66042;51.090;-115.340;2023-02-14T02:15:04;9.10;;;1.40;;
74538;SDS011;66042;51.090;-115.340;2023-02-14T02:17:51;13.30;;;1.60;;
74538;SDS011;66042;51.090;-115.340;2023-02-14T02:20:44;12.50;;;0.90;;
74538;SDS011;66042;51.090;-115.340;2023-02-14T02:24:01;16.70;;;0.80;;
74538;SDS011;66042;51.090;-115.340;2023-02-14T02:38:50;5.30;;;0.80;;
74538;SDS011;66042;51.090;-115.340;2023-02-14T02:47:32;8.90;;;1.70;;
74538;SDS011;66042;51.090;-115.340;2023-02-14T02:50:14;6.10;;;0.90;;
74538;SDS011;66042;51.090;-115.340;2023-02-14T02:56:31;5.10;;;0.90;;
74538;SDS011;66042;51.090;-115.340;2023-02-14T03:02:00;3.40;;;0.60;;
74538;SDS011;66042;51.090;-115.340;2023-02-14T03:04:32;6.40;;;0.50;;
74538;SDS011;66042;51.090;-115.340;2023-02-14T03:07:35;4.00;;;0.60;;
74538;SDS011;66042;51.090;-115.340;2023-02-14T03:10:11;6.30;;;0.70;;
74538;SDS011;66042;51.090;-115.340;2023-02-14T03:21:51;3.80;;;0.60;;
74538;SDS011;66042;51.090;-115.340;2023-02-14T03:30:00;3.90;;;0.80;;
74538;SDS011;66042;51.090;-115.340;2023-02-14T03:40:43;5.00;;;1.20;;
74538;SDS011;66042;51.090;-115.340;2023-02-14T03:43:27;11.30;;;1.20;;
74538;SDS011;66042;51.090;-115.340;2023-02-14T03:46:25;15.80;;;1.60;;
74538;SDS011;66042;51.090;-115.340;2023-02-14T03:49:02;8.30;;;1.00;;
74538;SDS011;66042;51.090;-115.340;2023-02-14T03:51:36;15.40;;;1.10;;
74538;SDS011;66042;51.090;-115.340;2023-02-14T03:54:07;11.80;;;1.10;;
74538;SDS011;66042;51.090;-115.340;2023-02-14T03:56:38;5.60;;;0.90;;
74538;SDS011;66042;51.090;-115.340;2023-02-14T03:59:20;8.30;;;1.00;;
74538;SDS011;66042;51.090;-115.340;2023-02-14T04:02:05;1.60;;;0.60;;
74538;SDS011;66042;51.090;-115.340;2023-02-14T04:04:39;3.50;;;0.80;;
74538;SDS011;66042;51.090;-115.340;2023-02-14T04:07:18;5.50;;;0.90;;
74538;SDS011;66042;51.090;-115.340;2023-02-14T04:09:50;1.70;;;0.80;;
74538;SDS011;66042;51.090;-115.340;2023-02-14T04:12:19;3.30;;;0.70;;
74538;SDS011;66042;51.090;-115.340;2023-02-14T04:14:46;1.80;;;0.50;;
74538;SDS011;66042;51.090;-115.340;2023-02-14T04:17:13;1.60;;;0.50;;
74538;SDS011;66042;51.090;-115.340;2023-02-14T04:19:58;1.10;;;0.50;;
74538;SDS011;66042;51.090;-115.340;2023-02-14T04:22:25;1.40;;;0.70;;
74538;SDS011;66042;51.090;-115.340;2023-02-14T04:24:52;5.60;;;0.50;;
74538;SDS011;66042;51.090;-115.340;2023-02-14T04:27:19;1.30;;;0.70;;
74538;SDS011;66042;51.090;-115.340;2023-02-14T04:29:48;1.50;;;0.40;;
74538;SDS011;66042;51.090;-115.340;2023-02-14T04:32:19;1.80;;;0.60;;
74538;SDS011;66042;51.090;-115.340;2023-02-14T04:34:48;1.90;;;0.70;;
74538;SDS011;66042;51.090;-115.340;2023-02-14T04:37:17;2.40;;;0.80;;
74538;SDS011;66042;51.090;-115.340;2023-02-14T04:39:45;5.20;;;1.00;;
74538;SDS011;66042;51.090;-115.340;2023-02-14T04:42:12;2.10;;;0.70;;
74538;SDS011;66042;51.090;-115.340;2023-02-14T04:44:39;4.10;;;0.70;;
74538;SDS011;66042;51.090;-115.340;2023-02-14T04:47:07;3.00;;;0.90;;
74538;SDS011;66042;51.090;-115.340;2023-02-14T04:49:34;2.90;;;0.90;;
74538;SDS011;66042;51.090;-115.340;2023-02-14T04:52:01;10.60;;;1.00;;
74538;SDS011;66042;51.090;-115.340;2023-02-14T04:54:28;7.70;;;0.70;;
74538;SDS011;66042;51.090;-115.340;2023-02-14T04:56:55;3.10;;;0.60;;
74538;SDS011;66042;51.090;-115.340;2023-02-14T04:59:22;2.40;;;0.80;;
74538;SDS011;66042;51.090;-115.340;2023-02-14T05:01:49;5.40;;;0.70;;
74538;SDS011;66042;51.090;-115.340;2023-02-14T05:04:16;3.70;;;0.70;;
74538;SDS011;66042;51.090;-115.340;2023-02-14T05:06:43;1.80;;;0.50;;
74538;SDS011;66042;51.090;-115.340;2023-02-14T05:09:10;1.60;;;0.90;;
74538;SDS011;66042;51.090;-115.340;2023-02-14T05:11:40;2.00;;;0.80;;
74538;SDS011;66042;51.090;-115.340;2023-02-14T05:14:07;2.00;;;0.80;;
74538;SDS011;66042;51.090;-115.340;2023-02-14T05:16:34;4.10;;;0.90;;
74538;SDS011;66042;51.090;-115.340;2023-02-14T05:19:03;4.30;;;1.00;;
74538;SDS011;66042;51.090;-115.340;2023-02-14T05:21:30;2.90;;;1.90;;
74538;SDS011;66042;51.090;-115.340;2023-02-14T05:23:59;2.30;;;1.30;;
74538;SDS011;66042;51.090;-115.340;2023-02-14T05:26:27;4.00;;;2.20;;
74538;SDS011;66042;51.090;-115.340;2023-02-14T05:28:54;4.20;;;1.90;;
74538;SDS011;66042;51.090;-115.340;2023-02-14T05:31:22;4.30;;;2.20;;
74538;SDS011;66042;51.090;-115.340;2023-02-14T05:33:48;6.10;;;1.70;;
74538;SDS011;66042;51.090;-115.340;2023-02-14T05:36:15;2.10;;;1.40;;
74538;SDS011;66042;51.090;-115.340;2023-02-14T05:38:42;6.00;;;1.20;;
74538;SDS011;66042;51.090;-115.340;2023-02-14T05:41:09;8.50;;;1.40;;
74538;SDS011;66042;51.090;-115.340;2023-02-14T05:43:36;2.00;;;1.00;;
74538;SDS011;66042;51.090;-115.340;2023-02-14T05:46:02;5.00;;;1.30;;
74538;SDS011;66042;51.090;-115.340;2023-02-14T05:48:30;2.20;;;1.30;;
74538;SDS011;66042;51.090;-115.340;2023-02-14T05:50:57;2.80;;;1.60;;
74538;SDS011;66042;51.090;-115.340;2023-02-14T05:53:27;3.10;;;1.00;;
74538;SDS011;66042;51.090;-115.340;2023-02-14T05:55:54;3.20;;;1.20;;
74538;SDS011;66042;51.090;-115.340;2023-02-14T05:58:21;6.30;;;1.60;;
74538;SDS011;66042;51.090;-115.340;2023-02-14T06:00:48;3.70;;;1.50;;
74538;SDS011;66042;51.090;-115.340;2023-02-14T06:03:16;4.20;;;1.20;;
74538;SDS011;66042;51.090;-115.340;2023-02-14T06:05:42;3.70;;;1.50;;
74538;SDS011;66042;51.090;-115.340;2023-02-14T06:08:10;2.60;;;1.30;;
74538;SDS011;66042;51.090;-115.340;2023-02-14T06:10:36;2.60;;;1.70;;
74538;SDS011;66042;51.090;-115.340;2023-02-14T06:13:03;2.80;;;1.70;;
74538;SDS011;66042;51.090;-115.340;2023-02-14T06:15:34;4.40;;;2.10;;
74538;SDS011;66042;51.090;-115.340;2023-02-14T06:18:01;3.80;;;2.00;;
74538;SDS011;66042;51.090;-115.340;2023-02-14T06:20:29;5.10;;;1.80;;
74538;SDS011;66042;51.090;-115.340;2023-02-14T06:22:57;3.70;;;2.00;;
74538;SDS011;66042;51.090;-115.340;2023-02-14T06:25:24;4.10;;;1.90;;
74538;SDS011;66042;51.090;-115.340;2023-02-14T06:27:55;3.30;;;2.00;;
74538;SDS011;66042;51.090;-115.340;2023-02-14T06:30:24;4.30;;;2.00;;
74538;SDS011;66042;51.090;-115.340;2023-02-14T06:32:51;2.80;;;1.60;;
74538;SDS011;66042;51.090;-115.340;2023-02-14T06:35:18;4.80;;;2.20;;
74538;SDS011;66042;51.090;-115.340;2023-02-14T06:37:45;2.70;;;1.60;;
74538;SDS011;66042;51.090;-115.340;2023-02-14T06:40:13;3.80;;;1.70;;
74538;SDS011;66042;51.090;-115.340;2023-02-14T06:42:40;5.70;;;1.90;;
74538;SDS011;66042;51.090;-115.340;2023-02-14T06:45:08;4.60;;;2.10;;
74538;SDS011;66042;51.090;-115.340;2023-02-14T06:47:35;3.50;;;1.50;;
74538;SDS011;66042;51.090;-115.340;2023-02-14T06:50:03;2.70;;;1.60;;
74538;SDS011;66042;51.090;-115.340;2023-02-14T06:52:32;3.10;;;1.30;;
74538;SDS011;66042;51.090;-115.340;2023-02-14T06:54:59;4.60;;;1.50;;
74538;SDS011;66042;51.090;-115.340;2023-02-14T06:57:26;3.20;;;1.40;;
74538;SDS011;66042;51.090;-115.340;2023-02-14T06:59:53;2.90;;;1.50;;
74538;SDS011;66042;51.090;-115.340;2023-02-14T07:02:20;3.10;;;1.50;;
74538;SDS011;66042;51.090;-115.340;2023-02-14T07:04:48;3.70;;;1.60;;
74538;SDS011;66042;51.090;-115.340;2023-02-14T07:07:15;2.80;;;1.10;;
74538;SDS011;66042;51.090;-115.340;2023-02-14T07:09:42;1.80;;;1.00;;
74538;SDS011;66042;51.090;-115.340;2023-02-14T07:12:09;2.90;;;1.30;;
74538;SDS011;66042;51.090;-115.340;2023-02-14T07:14:36;3.50;;;0.90;;
74538;SDS011;66042;51.090;-115.340;2023-02-14T07:17:03;1.80;;;0.60;;
74538;SDS011;66042;51.090;-115.340;2023-02-14T07:19:31;3.40;;;1.10;;
74538;SDS011;66042;51.090;-115.340;2023-02-14T07:21:57;1.40;;;0.60;;
74538;SDS011;66042;51.090;-115.340;2023-02-14T07:24:24;2.80;;;1.10;;
74538;SDS011;66042;51.090;-115.340;2023-02-14T07:26:52;2.80;;;0.80;;
74538;SDS011;66042;51.090;-115.340;2023-02-14T07:29:19;2.40;;;1.00;;
74538;SDS011;66042;51.090;-115.340;2023-02-14T07:31:46;1.30;;;0.70;;
74538;SDS011;66042;51.090;-115.340;2023-02-14T07:34:13;2.80;;;0.80;;
74538;SDS011;66042;51.090;-115.340;2023-02-14T07:36:41;1.80;;;0.80;;
74538;SDS011;66042;51.090;-115.340;2023-02-14T07:39:09;2.60;;;1.00;;
74538;SDS011;66042;51.090;-115.340;2023-02-14T07:41:36;1.30;;;0.70;;
74538;SDS011;66042;51.090;-115.340;2023-02-14T07:44:03;4.90;;;1.20;;
74538;SDS011;66042;51.090;-115.340;2023-02-14T07:46:30;2.50;;;0.70;;
74538;SDS011;66042;51.090;-115.340;2023-02-14T07:48:57;1.60;;;0.80;;
74538;SDS011;66042;51.090;-115.340;2023-02-14T07:51:24;1.10;;;0.90;;
74538;SDS011;66042;51.090;-115.340;2023-02-14T07:53:51;1.00;;;0.70;;
74538;SDS011;66042;51.090;-115.340;2023-02-14T07:56:18;1.10;;;0.50;;
74538;SDS011;66042;51.090;-115.340;2023-02-14T07:58:46;1.10;;;0.40;;
74538;SDS011;66042;51.090;-115.340;2023-02-14T08:01:15;1.40;;;0.40;;
74538;SDS011;66042;51.090;-115.340;2023-02-14T08:03:43;1.30;;;0.70;;
74538;SDS011;66042;51.090;-115.340;2023-02-14T08:06:17;0.90;;;0.60;;
74538;SDS011;66042;51.090;-115.340;2023-02-14T08:08:45;1.00;;;0.60;;
74538;SDS011;66042;51.090;-115.340;2023-02-14T08:11:12;0.60;;;0.30;;
74538;SDS011;66042;51.090;-115.340;2023-02-14T08:14:00;1.00;;;0.50;;
74538;SDS011;66042;51.090;-115.340;2023-02-14T08:16:27;1.00;;;0.60;;
74538;SDS011;66042;51.090;-115.340;2023-02-14T08:18:54;1.20;;;0.70;;
74538;SDS011;66042;51.090;-115.340;2023-02-14T08:21:21;1.20;;;0.50;;
74538;SDS011;66042;51.090;-115.340;2023-02-14T08:23:48;0.80;;;0.50;;
74538;SDS011;66042;51.090;-115.340;2023-02-14T08:26:15;1.10;;;0.70;;
74538;SDS011;66042;51.090;-115.340;2023-02-14T08:28:43;1.00;;;0.70;;
74538;SDS011;66042;51.090;-115.340;2023-02-14T08:31:11;0.90;;;0.60;;
74538;SDS011;66042;51.090;-115.340;2023-02-14T08:33:37;0.90;;;0.50;;
74538;SDS011;66042;51.090;-115.340;2023-02-14T08:36:04;0.80;;;0.50;;
74538;SDS011;66042;51.090;-115.340;2023-02-14T08:38:32;0.60;;;0.30;;
74538;SDS011;66042;51.090;-115.340;2023-02-14T08:41:00;0.90;;;0.60;;
74538;SDS011;66042;51.090;-115.340;2023-02-14T08:43:27;0.80;;;0.60;;
74538;SDS011;66042;51.090;-115.340;2023-02-14T08:45:54;0.60;;;0.30;;
74538;SDS011;66042;51.090;-115.340;2023-02-14T08:48:21;0.90;;;0.50;;
74538;SDS011;66042;51.090;-115.340;2023-02-14T08:50:50;1.10;;;0.40;;
74538;SDS011;66042;51.090;-115.340;2023-02-14T08:53:17;1.10;;;0.60;;
74538;SDS011;66042;51.090;-115.340;2023-02-14T08:55:44;0.90;;;0.40;;
74538;SDS011;66042;51.090;-115.340;2023-02-14T08:58:11;1.30;;;0.70;;
74538;SDS011;66042;51.090;-115.340;2023-02-14T09:00:38;1.00;;;0.60;;
74538;SDS011;66042;51.090;-115.340;2023-02-14T09:03:06;1.50;;;0.80;;
74538;SDS011;66042;51.090;-115.340;2023-02-14T09:05:33;1.80;;;0.80;;
74538;SDS011;66042;51.090;-115.340;2023-02-14T09:08:01;1.30;;;0.70;;
74538;SDS011;66042;51.090;-115.340;2023-02-14T09:10:29;1.10;;;0.40;;
74538;SDS011;66042;51.090;-115.340;2023-02-14T09:12:56;1.10;;;0.70;;
74538;SDS011;66042;51.090;-115.340;2023-02-14T09:15:23;1.60;;;0.70;;
74538;SDS011;66042;51.090;-115.340;2023-02-14T09:17:50;1.40;;;0.80;;
74538;SDS011;66042;51.090;-115.340;2023-02-14T09:20:17;3.70;;;0.60;;
74538;SDS011;66042;51.090;-115.340;2023-02-14T09:22:45;2.00;;;0.90;;
74538;SDS011;66042;51.090;-115.340;2023-02-14T09:25:12;1.20;;;0.40;;
74538;SDS011;66042;51.090;-115.340;2023-02-14T09:27:39;1.50;;;0.90;;
74538;SDS011;66042;51.090;-115.340;2023-02-14T09:30:07;1.20;;;0.60;;
74538;SDS011;66042;51.090;-115.340;2023-02-14T09:32:35;1.20;;;0.60;;
74538;SDS011;66042;51.090;-115.340;2023-02-14T09:35:02;1.30;;;0.70;;
74538;SDS011;66042;51.090;-115.340;2023-02-14T09:37:30;2.40;;;0.90;;
74538;SDS011;66042;51.090;-115.340;2023-02-14T09:40:17;1.40;;;0.90;;
74538;SDS011;66042;51.090;-115.340;2023-02-14T09:42:50;1.90;;;1.00;;
74538;SDS011;66042;51.090;-115.340;2023-02-14T09:45:30;1.70;;;0.90;;
74538;SDS011;66042;51.090;-115.340;2023-02-14T09:48:25;2.50;;;1.20;;
74538;SDS011;66042;51.090;-115.340;2023-02-14T09:51:04;2.80;;;1.10;;
74538;SDS011;66042;51.090;-115.340;2023-02-14T09:54:08;3.90;;;1.10;;
74538;SDS011;66042;51.090;-115.340;2023-02-14T09:57:35;2.30;;;0.90;;
74538;SDS011;66042;51.090;-115.340;2023-02-14T10:05:56;3.80;;;1.00;;
74538;SDS011;66042;51.090;-115.340;2023-02-14T10:11:26;6.20;;;1.40;;
74538;SDS011;66042;51.090;-115.340;2023-02-14T10:16:42;3.40;;;1.60;;
74538;SDS011;66042;51.090;-115.340;2023-02-14T10:19:26;3.60;;;1.40;;
74538;SDS011;66042;51.090;-115.340;2023-02-14T10:22:07;5.00;;;1.90;;
74538;SDS011;66042;51.090;-115.340;2023-02-14T10:25:02;4.10;;;2.20;;
74538;SDS011;66042;51.090;-115.340;2023-02-14T10:27:41;8.40;;;2.80;;
74538;SDS011;66042;51.090;-115.340;2023-02-14T10:30:20;6.80;;;2.20;;
74538;SDS011;66042;51.090;-115.340;2023-02-14T10:33:17;5.90;;;2.00;;
74538;SDS011;66042;51.090;-115.340;2023-02-14T10:35:51;2.50;;;0.90;;
74538;SDS011;66042;51.090;-115.340;2023-02-14T10:41:59;3.10;;;1.00;;
74538;SDS011;66042;51.090;-115.340;2023-02-14T10:50:15;3.10;;;1.10;;
74538;SDS011;66042;51.090;-115.340;2023-02-14T10:53:29;1.70;;;0.80;;
74538;SDS011;66042;51.090;-115.340;2023-02-14T10:56:18;2.90;;;1.20;;
74538;SDS011;66042;51.090;-115.340;2023-02-14T10:58:54;2.30;;;0.70;;
74538;SDS011;66042;51.090;-115.340;2023-02-14T11:01:23;2.10;;;1.00;;
74538;SDS011;66042;51.090;-115.340;2023-02-14T11:03:53;2.10;;;0.90;;
74538;SDS011;66042;51.090;-115.340;2023-02-14T11:06:31;2.10;;;1.30;;
74538;SDS011;66042;51.090;-115.340;2023-02-14T11:08:59;1.10;;;0.40;;
74538;SDS011;66042;51.090;-115.340;2023-02-14T11:11:50;2.10;;;0.70;;
74538;SDS011;66042;51.090;-115.340;2023-02-14T11:14:33;2.20;;;0.70;;
74538;SDS011;66042;51.090;-115.340;2023-02-14T11:17:28;1.60;;;1.00;;
74538;SDS011;66042;51.090;-115.340;2023-02-14T11:19:59;2.50;;;1.10;;
74538;SDS011;66042;51.090;-115.340;2023-02-14T11:22:32;1.30;;;0.90;;
74538;SDS011;66042;51.090;-115.340;2023-02-14T11:25:23;2.10;;;0.70;;
74538;SDS011;66042;51.090;-115.340;2023-02-14T11:28:04;1.60;;;0.60;;
74538;SDS011;66042;51.090;-115.340;2023-02-14T11:30:42;2.50;;;0.90;;
74538;SDS011;66042;51.090;-115.340;2023-02-14T11:33:36;2.00;;;0.90;;
74538;SDS011;66042;51.090;-115.340;2023-02-14T11:36:13;1.80;;;0.90;;
74538;SDS011;66042;51.090;-115.340;2023-02-14T11:38:44;2.80;;;0.90;;
74538;SDS011;66042;51.090;-115.340;2023-02-14T11:41:19;2.20;;;1.00;;
74538;SDS011;66042;51.090;-115.340;2023-02-14T11:43:47;3.00;;;1.10;;
74538;SDS011;66042;51.090;-115.340;2023-02-14T11:49:02;4.00;;;1.80;;
74538;SDS011;66042;51.090;-115.340;2023-02-14T11:51:42;4.20;;;1.50;;
74538;SDS011;66042;51.090;-115.340;2023-02-14T11:59:54;2.90;;;1.20;;
74538;SDS011;66042;51.090;-115.340;2023-02-14T12:02:40;4.60;;;1.60;;
74538;SDS011;66042;51.090;-115.340;2023-02-14T12:08:09;5.30;;;1.60;;
74538;SDS011;66042;51.090;-115.340;2023-02-14T12:10:38;5.20;;;1.80;;
74538;SDS011;66042;51.090;-115.340;2023-02-14T12:15:37;6.10;;;2.10;;
74538;SDS011;66042;51.090;-115.340;2023-02-14T12:32:02;6.70;;;2.40;;
74538;SDS011;66042;51.090;-115.340;2023-02-14T12:35:16;3.50;;;1.50;;
74538;SDS011;66042;51.090;-115.340;2023-02-14T12:37:49;6.40;;;1.30;;
74538;SDS011;66042;51.090;-115.340;2023-02-14T12:40:49;3.80;;;1.80;;
74538;SDS011;66042;51.090;-115.340;2023-02-14T12:43:54;7.80;;;1.60;;
74538;SDS011;66042;51.090;-115.340;2023-02-14T12:49:20;4.20;;;1.80;;
74538;SDS011;66042;51.090;-115.340;2023-02-14T12:52:41;5.40;;;1.70;;
74538;SDS011;66042;51.090;-115.340;2023-02-14T12:58:37;4.90;;;1.60;;
74538;SDS011;66042;51.090;-115.340;2023-02-14T13:04:17;3.30;;;1.20;;
74538;SDS011;66042;51.090;-115.340;2023-02-14T13:07:34;4.20;;;1.20;;
74538;SDS011;66042;51.090;-115.340;2023-02-14T13:18:58;3.10;;;1.30;;
74538;SDS011;66042;51.090;-115.340;2023-02-14T13:21:49;4.80;;;1.90;;
74538;SDS011;66042;51.090;-115.340;2023-02-14T13:24:25;4.60;;;1.70;;
74538;SDS011;66042;51.090;-115.340;2023-02-14T13:26:58;4.80;;;1.50;;
74538;SDS011;66042;51.090;-115.340;2023-02-14T13:29:35;5.40;;;1.60;;
74538;SDS011;66042;51.090;-115.340;2023-02-14T13:32:15;5.00;;;1.70;;
74538;SDS011;66042;51.090;-115.340;2023-02-14T13:34:46;3.90;;;1.70;;
74538;SDS011;66042;51.090;-115.340;2023-02-14T13:37:20;5.30;;;1.90;;
74538;SDS011;66042;51.090;-115.340;2023-02-14T13:39:55;5.40;;;2.00;;
74538;SDS011;66042;51.090;-115.340;2023-02-14T13:48:05;3.90;;;2.00;;
74538;SDS011;66042;51.090;-115.340;2023-02-14T13:51:01;3.70;;;1.90;;
74538;SDS011;66042;51.090;-115.340;2023-02-14T13:59:33;5.40;;;1.30;;
74538;SDS011;66042;51.090;-115.340;2023-02-14T14:04:53;10.30;;;2.10;;
74538;SDS011;66042;51.090;-115.340;2023-02-14T14:07:23;6.60;;;2.10;;
74538;SDS011;66042;51.090;-115.340;2023-02-14T14:10:00;7.10;;;2.60;;
74538;SDS011;66042;51.090;-115.340;2023-02-14T14:17:36;8.80;;;2.40;;
74538;SDS011;66042;51.090;-115.340;2023-02-14T14:20:36;12.90;;;2.00;;
74538;SDS011;66042;51.090;-115.340;2023-02-14T14:23:33;9.50;;;2.40;;
74538;SDS011;66042;51.090;-115.340;2023-02-14T14:26:28;8.60;;;2.00;;
74538;SDS011;66042;51.090;-115.340;2023-02-14T14:29:08;8.30;;;2.20;;
74538;SDS011;66042;51.090;-115.340;2023-02-14T14:31:48;4.60;;;1.70;;
74538;SDS011;66042;51.090;-115.340;2023-02-14T14:34:22;5.40;;;2.30;;
74538;SDS011;66042;51.090;-115.340;2023-02-14T14:39:31;3.70;;;1.50;;
74538;SDS011;66042;51.090;-115.340;2023-02-14T14:42:13;4.50;;;2.10;;
74538;SDS011;66042;51.090;-115.340;2023-02-14T14:44:51;5.60;;;1.40;;
74538;SDS011;66042;51.090;-115.340;2023-02-14T14:47:31;6.80;;;1.70;;
74538;SDS011;66042;51.090;-115.340;2023-02-14T14:50:13;9.00;;;2.50;;
74538;SDS011;66042;51.090;-115.340;2023-02-14T14:53:04;5.20;;;2.10;;
74538;SDS011;66042;51.090;-115.340;2023-02-14T14:55:37;6.90;;;2.60;;
74538;SDS011;66042;51.090;-115.340;2023-02-14T15:01:03;6.10;;;2.20;;
74538;SDS011;66042;51.090;-115.340;2023-02-14T15:03:34;8.50;;;2.70;;
74538;SDS011;66042;51.090;-115.340;2023-02-14T15:06:16;11.00;;;3.10;;
74538;SDS011;66042;51.090;-115.340;2023-02-14T15:08:46;6.10;;;2.50;;
74538;SDS011;66042;51.090;-115.340;2023-02-14T15:11:19;6.90;;;2.40;;
74538;SDS011;66042;51.090;-115.340;2023-02-14T15:14:16;8.90;;;2.00;;
74538;SDS011;66042;51.090;-115.340;2023-02-14T15:16:47;7.20;;;2.60;;
74538;SDS011;66042;51.090;-115.340;2023-02-14T15:19:43;16.50;;;2.30;;
74538;SDS011;66042;51.090;-115.340;2023-02-14T15:22:24;12.50;;;3.70;;
74538;SDS011;66042;51.090;-115.340;2023-02-14T15:24:56;11.00;;;2.70;;
74538;SDS011;66042;51.090;-115.340;2023-02-14T15:27:25;12.10;;;2.90;;
74538;SDS011;66042;51.090;-115.340;2023-02-14T15:29:55;8.10;;;2.20;;
74538;SDS011;66042;51.090;-115.340;2023-02-14T15:32:29;8.20;;;2.50;;
74538;SDS011;66042;51.090;-115.340;2023-02-14T15:35:00;8.50;;;1.90;;
74538;SDS011;66042;51.090;-115.340;2023-02-14T15:37:30;5.90;;;2.20;;
74538;SDS011;66042;51.090;-115.340;2023-02-14T15:40:01;10.90;;;2.10;;
74538;SDS011;66042;51.090;-115.340;2023-02-14T15:42:30;12.70;;;2.20;;
74538;SDS011;66042;51.090;-115.340;2023-02-14T15:48:03;9.30;;;2.50;;
74538;SDS011;66042;51.090;-115.340;2023-02-14T15:50:45;7.70;;;2.30;;
74538;SDS011;66042;51.090;-115.340;2023-02-14T15:55:46;9.00;;;2.80;;
74538;SDS011;66042;51.090;-115.340;2023-02-14T15:58:24;7.00;;;2.10;;
74538;SDS011;66042;51.090;-115.340;2023-02-14T16:00:58;5.70;;;2.30;;
74538;SDS011;66042;51.090;-115.340;2023-02-14T16:03:28;5.50;;;1.70;;
74538;SDS011;66042;51.090;-115.340;2023-02-14T16:06:01;7.70;;;1.50;;
74538;SDS011;66042;51.090;-115.340;2023-02-14T16:11:14;3.70;;;0.90;;
74538;SDS011;66042;51.090;-115.340;2023-02-14T16:13:55;8.10;;;1.40;;
74538;SDS011;66042;51.090;-115.340;2023-02-14T16:16:22;6.70;;;2.00;;
74538;SDS011;66042;51.090;-115.340;2023-02-14T16:18:51;8.20;;;2.40;;
74538;SDS011;66042;51.090;-115.340;2023-02-14T16:21:26;4.20;;;1.20;;
74538;SDS011;66042;51.090;-115.340;2023-02-14T16:26:41;4.80;;;1.80;;
74538;SDS011;66042;51.090;-115.340;2023-02-14T16:29:15;8.00;;;2.40;;
74538;SDS011;66042;51.090;-115.340;2023-02-14T16:31:51;4.90;;;1.30;;
74538;SDS011;66042;51.090;-115.340;2023-02-14T16:34:21;7.50;;;1.60;;
74538;SDS011;66042;51.090;-115.340;2023-02-14T16:36:49;4.10;;;1.00;;
74538;SDS011;66042;51.090;-115.340;2023-02-14T16:39:18;7.40;;;1.50;;
74538;SDS011;66042;51.090;-115.340;2023-02-14T16:41:48;6.00;;;2.20;;
74538;SDS011;66042;51.090;-115.340;2023-02-14T16:44:18;7.40;;;2.10;;
74538;SDS011;66042;51.090;-115.340;2023-02-14T16:46:46;3.80;;;1.00;;
74538;SDS011;66042;51.090;-115.340;2023-02-14T16:49:13;3.00;;;0.90;;
74538;SDS011;66042;51.090;-115.340;2023-02-14T16:51:42;2.60;;;1.30;;
74538;SDS011;66042;51.090;-115.340;2023-02-14T16:54:18;4.90;;;1.80;;
74538;SDS011;66042;51.090;-115.340;2023-02-14T16:56:55;6.10;;;1.80;;
74538;SDS011;66042;51.090;-115.340;2023-02-14T16:59:26;8.20;;;2.30;;
74538;SDS011;66042;51.090;-115.340;2023-02-14T17:01:55;9.60;;;2.50;;
74538;SDS011;66042;51.090;-115.340;2023-02-14T17:04:25;9.90;;;2.70;;
74538;SDS011;66042;51.090;-115.340;2023-02-14T17:06:53;10.80;;;2.10;;
74538;SDS011;66042;51.090;-115.340;2023-02-14T17:09:26;9.50;;;2.30;;
74538;SDS011;66042;51.090;-115.340;2023-02-14T17:12:00;6.60;;;2.80;;
74538;SDS011;66042;51.090;-115.340;2023-02-14T17:14:35;6.50;;;2.20;;
74538;SDS011;66042;51.090;-115.340;2023-02-14T17:17:03;10.80;;;1.70;;